aviador You're here:

KTVY Decoded Metar

in
Report Time2017-09-25 20:15:00
UTC Time2017-09-25 20:26:23
Flight Rules vfr VFR
Wind360° at 06 kt
W.Decomp.*RWY 35: 5.9 kt HW 1.0 kt RCW
Visibility9999 m
Phenomena:N/A
Clouds:Scattered 080 Hf
Expected CloudBase > 4,800 ft AGL from Temp-Dew spread
CeilingNone
Temp13°C
Dew Point01°C (44% RH)
AAT9.0°C
QNH1020 hPa
Raw Report
METAR KTVY 252015Z AUTO 36006KT 10SM SCT080 13/01 A3012 RMK AO2=

Extra information for KTVY:More info

Social comments